sensor_id;sensor_type;location;lat;lon;timestamp;pressure;altitude;pressure_sealevel;temperature;humidity
58761;BME280;44529;47.464;19.014;2023-04-06T00:01:25;100438.16;;;2.00;56.61
58761;BME280;44529;47.464;19.014;2023-04-06T00:04:27;100427.75;;;1.76;56.70
58761;BME280;44529;47.464;19.014;2023-04-06T00:07:30;100427.81;;;1.59;55.98
58761;BME280;44529;47.464;19.014;2023-04-06T00:10:32;100429.47;;;1.66;55.22
58761;BME280;44529;47.464;19.014;2023-04-06T00:13:35;100427.19;;;1.74;55.18
58761;BME280;44529;47.464;19.014;2023-04-06T00:16:37;100428.41;;;1.67;56.12
58761;BME280;44529;47.464;19.014;2023-04-06T00:19:39;100423.78;;;1.57;57.63
58761;BME280;44529;47.464;19.014;2023-04-06T00:22:43;100415.09;;;1.45;57.50
58761;BME280;44529;47.464;19.014;2023-04-06T00:25:45;100416.44;;;1.25;58.31
58761;BME280;44529;47.464;19.014;2023-04-06T00:28:48;100415.72;;;1.13;58.63
58761;BME280;44529;47.464;19.014;2023-04-06T00:31:52;100414.38;;;1.11;58.90
58761;BME280;44529;47.464;19.014;2023-04-06T00:34:54;100412.38;;;0.84;60.75
58761;BME280;44529;47.464;19.014;2023-04-06T00:37:56;100410.03;;;0.88;60.49
58761;BME280;44529;47.464;19.014;2023-04-06T00:40:59;100403.09;;;0.70;61.71
58761;BME280;44529;47.464;19.014;2023-04-06T00:44:01;100399.41;;;0.54;62.70
58761;BME280;44529;47.464;19.014;2023-04-06T00:47:04;100400.81;;;0.45;63.24
58761;BME280;44529;47.464;19.014;2023-04-06T00:50:07;100399.31;;;0.66;62.13
58761;BME280;44529;47.464;19.014;2023-04-06T00:53:09;100388.91;;;0.64;62.46
58761;BME280;44529;47.464;19.014;2023-04-06T00:56:12;100395.59;;;0.50;62.76
58761;BME280;44529;47.464;19.014;2023-04-06T00:59:16;100393.03;;;0.55;62.57
58761;BME280;44529;47.464;19.014;2023-04-06T01:02:18;100397.78;;;0.53;62.43
58761;BME280;44529;47.464;19.014;2023-04-06T01:05:21;100392.94;;;0.50;63.02
58761;BME280;44529;47.464;19.014;2023-04-06T01:08:24;100398.75;;;0.47;63.04
58761;BME280;44529;47.464;19.014;2023-04-06T01:11:28;100394.84;;;0.38;63.17
58761;BME280;44529;47.464;19.014;2023-04-06T01:14:31;100396.75;;;0.25;63.79
58761;BME280;44529;47.464;19.014;2023-04-06T01:17:33;100399.34;;;0.20;64.22
58761;BME280;44529;47.464;19.014;2023-04-06T01:20:37;100397.16;;;0.17;64.59
58761;BME280;44529;47.464;19.014;2023-04-06T01:23:43;100405.94;;;0.18;64.07
58761;BME280;44529;47.464;19.014;2023-04-06T01:26:46;100400.13;;;0.04;64.93
58761;BME280;44529;47.464;19.014;2023-04-06T01:29:49;100397.50;;;-0.08;65.20
58761;BME280;44529;47.464;19.014;2023-04-06T01:32:52;100398.41;;;-0.31;65.39
58761;BME280;44529;47.464;19.014;2023-04-06T01:35:55;100396.31;;;-0.29;64.83
58761;BME280;44529;47.464;19.014;2023-04-06T01:38:58;100395.78;;;-0.42;65.93
58761;BME280;44529;47.464;19.014;2023-04-06T01:42:02;100391.94;;;-0.35;65.44
58761;BME280;44529;47.464;19.014;2023-04-06T01:45:05;100394.59;;;-0.35;65.21
58761;BME280;44529;47.464;19.014;2023-04-06T01:48:08;100403.91;;;-0.20;64.66
58761;BME280;44529;47.464;19.014;2023-04-06T01:51:10;100392.94;;;-0.24;65.08
58761;BME280;44529;47.464;19.014;2023-04-06T01:54:16;100390.22;;;-0.41;65.41
58761;BME280;44529;47.464;19.014;2023-04-06T01:57:19;100389.09;;;-0.45;65.54
58761;BME280;44529;47.464;19.014;2023-04-06T02:00:23;100389.66;;;-0.43;65.15
58761;BME280;44529;47.464;19.014;2023-04-06T02:03:26;100390.69;;;-0.44;64.81
58761;BME280;44529;47.464;19.014;2023-04-06T02:06:31;100388.38;;;-0.40;64.34
58761;BME280;44529;47.464;19.014;2023-04-06T02:09:34;100383.84;;;-0.28;64.21
58761;BME280;44529;47.464;19.014;2023-04-06T02:12:37;100383.13;;;-0.23;64.00
58761;BME280;44529;47.464;19.014;2023-04-06T02:15:40;100383.94;;;-0.23;63.54
58761;BME280;44529;47.464;19.014;2023-04-06T02:18:42;100383.44;;;-0.20;64.07
58761;BME280;44529;47.464;19.014;2023-04-06T02:21:46;100373.41;;;-0.18;63.96
58761;BME280;44529;47.464;19.014;2023-04-06T02:24:48;100372.09;;;-0.32;64.59
58761;BME280;44529;47.464;19.014;2023-04-06T02:27:50;100369.75;;;-0.29;64.57
58761;BME280;44529;47.464;19.014;2023-04-06T02:30:53;100358.97;;;-0.22;63.62
58761;BME280;44529;47.464;19.014;2023-04-06T02:33:57;100363.69;;;-0.12;63.41
58761;BME280;44529;47.464;19.014;2023-04-06T02:37:01;100359.19;;;-0.12;63.49
58761;BME280;44529;47.464;19.014;2023-04-06T02:40:04;100354.22;;;-0.20;63.25
58761;BME280;44529;47.464;19.014;2023-04-06T02:43:08;100352.28;;;-0.24;63.85
58761;BME280;44529;47.464;19.014;2023-04-06T02:46:10;100354.50;;;-0.33;64.97
58761;BME280;44529;47.464;19.014;2023-04-06T02:49:13;100358.87;;;-0.27;64.41
58761;BME280;44529;47.464;19.014;2023-04-06T02:52:15;100355.91;;;-0.31;64.90
58761;BME280;44529;47.464;19.014;2023-04-06T02:55:20;100352.84;;;-0.22;65.13
58761;BME280;44529;47.464;19.014;2023-04-06T02:58:24;100351.53;;;-0.37;65.12
58761;BME280;44529;47.464;19.014;2023-04-06T03:01:27;100353.84;;;-0.40;65.27
58761;BME280;44529;47.464;19.014;2023-04-06T03:04:30;100347.75;;;-0.52;65.36
58761;BME280;44529;47.464;19.014;2023-04-06T03:07:33;100346.16;;;-0.53;65.59
58761;BME280;44529;47.464;19.014;2023-04-06T03:10:36;100340.28;;;-0.56;65.50
58761;BME280;44529;47.464;19.014;2023-04-06T03:13:39;100347.31;;;-0.61;65.22
58761;BME280;44529;47.464;19.014;2023-04-06T03:16:41;100348.13;;;-0.61;65.55
58761;BME280;44529;47.464;19.014;2023-04-06T03:19:45;100347.06;;;-0.48;64.90
58761;BME280;44529;47.464;19.014;2023-04-06T03:22:47;100348.81;;;-0.65;65.98
58761;BME280;44529;47.464;19.014;2023-04-06T03:25:51;100344.94;;;-0.74;65.85
58761;BME280;44529;47.464;19.014;2023-04-06T03:28:53;100347.59;;;-0.74;66.16
58761;BME280;44529;47.464;19.014;2023-04-06T03:31:57;100339.50;;;-0.79;65.97
58761;BME280;44529;47.464;19.014;2023-04-06T03:35:00;100342.97;;;-0.79;66.65
58761;BME280;44529;47.464;19.014;2023-04-06T03:38:03;100355.81;;;-0.88;66.46
58761;BME280;44529;47.464;19.014;2023-04-06T03:41:06;100348.28;;;-0.79;67.03
58761;BME280;44529;47.464;19.014;2023-04-06T03:44:09;100352.34;;;-0.76;65.85
58761;BME280;44529;47.464;19.014;2023-04-06T03:47:11;100352.22;;;-0.70;65.78
58761;BME280;44529;47.464;19.014;2023-04-06T03:50:15;100352.34;;;-0.76;66.03
58761;BME280;44529;47.464;19.014;2023-04-06T03:53:18;100351.84;;;-0.73;65.53
58761;BME280;44529;47.464;19.014;2023-04-06T03:56:21;100352.41;;;-0.71;65.40
58761;BME280;44529;47.464;19.014;2023-04-06T03:59:23;100351.75;;;-0.78;65.87
58761;BME280;44529;47.464;19.014;2023-04-06T04:02:27;100348.63;;;-0.75;65.61
58761;BME280;44529;47.464;19.014;2023-04-06T04:05:30;100346.91;;;-0.70;65.43
58761;BME280;44529;47.464;19.014;2023-04-06T04:08:32;100350.13;;;-0.68;65.25
58761;BME280;44529;47.464;19.014;2023-04-06T04:11:36;100341.72;;;-0.76;66.24
58761;BME280;44529;47.464;19.014;2023-04-06T04:14:39;100346.91;;;-0.70;65.64
58761;BME280;44529;47.464;19.014;2023-04-06T04:17:41;100340.66;;;-0.75;66.64
58761;BME280;44529;47.464;19.014;2023-04-06T04:20:48;100336.06;;;-0.80;66.06
58761;BME280;44529;47.464;19.014;2023-04-06T04:23:55;100336.75;;;-0.85;66.75
58761;BME280;44529;47.464;19.014;2023-04-06T04:26:58;100335.13;;;-0.86;66.63
58761;BME280;44529;47.464;19.014;2023-04-06T04:30:00;100344.38;;;-0.88;67.23
58761;BME280;44529;47.464;19.014;2023-04-06T04:33:03;100339.09;;;-0.88;66.80
58761;BME280;44529;47.464;19.014;2023-04-06T04:36:06;100337.22;;;-0.88;67.42
58761;BME280;44529;47.464;19.014;2023-04-06T04:39:11;100332.16;;;-0.89;66.45
58761;BME280;44529;47.464;19.014;2023-04-06T04:42:14;100328.59;;;-0.95;67.23
58761;BME280;44529;47.464;19.014;2023-04-06T04:45:18;100328.91;;;-0.91;67.20
58761;BME280;44529;47.464;19.014;2023-04-06T04:48:21;100326.06;;;-0.90;67.00
58761;BME280;44529;47.464;19.014;2023-04-06T04:51:24;100325.69;;;-0.82;66.16
58761;BME280;44529;47.464;19.014;2023-04-06T04:54:28;100314.13;;;-0.75;65.75
58761;BME280;44529;47.464;19.014;2023-04-06T04:57:32;100314.59;;;-0.78;67.05
58761;BME280;44529;47.464;19.014;2023-04-06T05:00:34;100306.75;;;-0.85;66.67
58761;BME280;44529;47.464;19.014;2023-04-06T05:03:37;100317.59;;;-0.75;65.94
58761;BME280;44529;47.464;19.014;2023-04-06T05:06:42;100326.34;;;-0.74;66.75
58761;BME280;44529;47.464;19.014;2023-04-06T05:09:45;100325.66;;;-0.70;67.21
58761;BME280;44529;47.464;19.014;2023-04-06T05:12:48;100318.37;;;-0.63;66.37
58761;BME280;44529;47.464;19.014;2023-04-06T05:15:51;100316.94;;;-0.53;65.86
58761;BME280;44529;47.464;19.014;2023-04-06T05:18:54;100312.38;;;-0.41;65.56
58761;BME280;44529;47.464;19.014;2023-04-06T05:22:00;100307.97;;;-0.36;65.44
58761;BME280;44529;47.464;19.014;2023-04-06T05:25:11;100302.53;;;-0.29;64.28
58761;BME280;44529;47.464;19.014;2023-04-06T05:28:14;100302.91;;;-0.37;66.03
58761;BME280;44529;47.464;19.014;2023-04-06T05:31:18;100293.34;;;-0.21;64.92
58761;BME280;44529;47.464;19.014;2023-04-06T05:34:21;100285.16;;;-0.03;63.57
58761;BME280;44529;47.464;19.014;2023-04-06T05:37:24;100283.00;;;0.11;62.42
58761;BME280;44529;47.464;19.014;2023-04-06T05:40:27;100284.87;;;0.27;61.81
58761;BME280;44529;47.464;19.014;2023-04-06T05:43:29;100284.28;;;0.42;62.64
58761;BME280;44529;47.464;19.014;2023-04-06T05:46:32;100281.44;;;0.48;60.50
58761;BME280;44529;47.464;19.014;2023-04-06T05:49:35;100279.75;;;0.59;60.28
58761;BME280;44529;47.464;19.014;2023-04-06T05:52:39;100284.09;;;0.65;61.27
58761;BME280;44529;47.464;19.014;2023-04-06T05:55:45;100276.34;;;0.64;61.71
58761;BME280;44529;47.464;19.014;2023-04-06T05:58:48;100278.59;;;0.72;60.42
58761;BME280;44529;47.464;19.014;2023-04-06T06:01:52;100280.31;;;0.83;59.81
58761;BME280;44529;47.464;19.014;2023-04-06T06:04:56;100278.53;;;0.89;60.17
58761;BME280;44529;47.464;19.014;2023-04-06T06:07:59;100279.25;;;1.01;60.05
58761;BME280;44529;47.464;19.014;2023-04-06T06:11:04;100271.69;;;1.15;59.80
58761;BME280;44529;47.464;19.014;2023-04-06T06:14:07;100274.91;;;1.17;59.64
58761;BME280;44529;47.464;19.014;2023-04-06T06:17:10;100260.09;;;1.26;60.17
58761;BME280;44529;47.464;19.014;2023-04-06T06:20:13;100269.88;;;1.42;59.16
58761;BME280;44529;47.464;19.014;2023-04-06T06:23:17;100264.78;;;1.41;59.07
58761;BME280;44529;47.464;19.014;2023-04-06T06:26:19;100260.06;;;1.48;58.55
58761;BME280;44529;47.464;19.014;2023-04-06T06:29:23;100253.69;;;1.49;58.31
58761;BME280;44529;47.464;19.014;2023-04-06T06:32:26;100250.41;;;1.69;57.13
58761;BME280;44529;47.464;19.014;2023-04-06T06:35:29;100246.78;;;1.80;56.05
58761;BME280;44529;47.464;19.014;2023-04-06T06:38:33;100242.28;;;1.80;56.30
58761;BME280;44529;47.464;19.014;2023-04-06T06:41:35;100247.41;;;1.87;56.27
58761;BME280;44529;47.464;19.014;2023-04-06T06:44:38;100238.97;;;2.05;56.75
58761;BME280;44529;47.464;19.014;2023-04-06T06:47:41;100232.72;;;2.22;56.12
58761;BME280;44529;47.464;19.014;2023-04-06T06:50:47;100239.84;;;2.53;52.16
58761;BME280;44529;47.464;19.014;2023-04-06T06:53:50;100237.63;;;2.87;47.83
58761;BME280;44529;47.464;19.014;2023-04-06T06:56:52;100235.84;;;3.13;46.87
58761;BME280;44529;47.464;19.014;2023-04-06T06:59:56;100236.44;;;3.25;46.32
58761;BME280;44529;47.464;19.014;2023-04-06T07:02:58;100251.19;;;3.43;46.78
58761;BME280;44529;47.464;19.014;2023-04-06T07:06:01;100235.72;;;3.56;46.36
58761;BME280;44529;47.464;19.014;2023-04-06T07:09:04;100234.09;;;3.65;46.66
58761;BME280;44529;47.464;19.014;2023-04-06T07:12:07;100241.88;;;3.82;46.22
58761;BME280;44529;47.464;19.014;2023-04-06T07:15:11;100242.16;;;3.80;45.66
58761;BME280;44529;47.464;19.014;2023-04-06T07:18:13;100243.22;;;3.89;45.26
58761;BME280;44529;47.464;19.014;2023-04-06T07:21:16;100251.75;;;3.86;45.64
58761;BME280;44529;47.464;19.014;2023-04-06T07:24:18;100237.06;;;3.94;45.78
58761;BME280;44529;47.464;19.014;2023-04-06T07:27:21;100249.12;;;4.01;44.77
58761;BME280;44529;47.464;19.014;2023-04-06T07:30:23;100244.28;;;4.08;45.46
58761;BME280;44529;47.464;19.014;2023-04-06T07:33:28;100243.47;;;4.18;44.70
58761;BME280;44529;47.464;19.014;2023-04-06T07:36:32;100241.59;;;4.34;44.91
58761;BME280;44529;47.464;19.014;2023-04-06T07:39:34;100234.31;;;4.50;43.51
58761;BME280;44529;47.464;19.014;2023-04-06T07:42:37;100232.72;;;4.64;44.04
58761;BME280;44529;47.464;19.014;2023-04-06T07:45:40;100230.69;;;4.95;43.85
58761;BME280;44529;47.464;19.014;2023-04-06T07:48:43;100243.00;;;5.01;42.88
58761;BME280;44529;47.464;19.014;2023-04-06T07:51:45;100234.34;;;5.25;42.76
58761;BME280;44529;47.464;19.014;2023-04-06T07:54:49;100231.03;;;5.38;42.84
58761;BME280;44529;47.464;19.014;2023-04-06T07:57:51;100220.97;;;5.59;42.48
58761;BME280;44529;47.464;19.014;2023-04-06T08:00:54;100227.63;;;5.66;41.44
58761;BME280;44529;47.464;19.014;2023-04-06T08:03:57;100217.34;;;5.79;42.53
58761;BME280;44529;47.464;19.014;2023-04-06T08:07:00;100228.09;;;5.79;41.98
58761;BME280;44529;47.464;19.014;2023-04-06T08:10:03;100223.31;;;5.70;42.72
58761;BME280;44529;47.464;19.014;2023-04-06T08:13:05;100227.09;;;5.69;41.50
58761;BME280;44529;47.464;19.014;2023-04-06T08:16:08;100232.59;;;5.93;40.78
58761;BME280;44529;47.464;19.014;2023-04-06T08:19:11;100232.84;;;5.92;41.21
58761;BME280;44529;47.464;19.014;2023-04-06T08:22:13;100235.44;;;6.02;41.79
58761;BME280;44529;47.464;19.014;2023-04-06T08:25:16;100229.94;;;6.17;40.37
58761;BME280;44529;47.464;19.014;2023-04-06T08:28:18;100225.75;;;6.35;39.83
58761;BME280;44529;47.464;19.014;2023-04-06T08:31:20;100221.75;;;6.33;40.11
58761;BME280;44529;47.464;19.014;2023-04-06T08:34:23;100218.62;;;6.26;39.65
58761;BME280;44529;47.464;19.014;2023-04-06T08:37:26;100218.00;;;6.34;41.08
58761;BME280;44529;47.464;19.014;2023-04-06T08:40:28;100221.97;;;6.36;40.18
58761;BME280;44529;47.464;19.014;2023-04-06T08:43:31;100210.56;;;6.49;40.52
58761;BME280;44529;47.464;19.014;2023-04-06T08:46:33;100212.31;;;6.35;40.21
58761;BME280;44529;47.464;19.014;2023-04-06T08:49:37;100202.69;;;6.34;41.10
58761;BME280;44529;47.464;19.014;2023-04-06T08:52:43;100207.94;;;6.44;40.95
58761;BME280;44529;47.464;19.014;2023-04-06T08:55:45;100198.00;;;6.45;42.02
58761;BME280;44529;47.464;19.014;2023-04-06T08:58:48;100203.25;;;6.79;39.84
58761;BME280;44529;47.464;19.014;2023-04-06T09:01:52;100193.84;;;7.00;38.76
58761;BME280;44529;47.464;19.014;2023-04-06T09:04:57;100196.78;;;7.42;38.80
58761;BME280;44529;47.464;19.014;2023-04-06T09:07:59;100185.78;;;7.57;37.87
58761;BME280;44529;47.464;19.014;2023-04-06T09:11:02;100191.53;;;8.02;36.40
58761;BME280;44529;47.464;19.014;2023-04-06T09:14:05;100188.88;;;7.83;38.03
58761;BME280;44529;47.464;19.014;2023-04-06T09:17:07;100181.88;;;8.01;36.89
58761;BME280;44529;47.464;19.014;2023-04-06T09:20:11;100176.31;;;7.78;37.33
58761;BME280;44529;47.464;19.014;2023-04-06T09:23:19;100174.94;;;7.81;36.24
58761;BME280;44529;47.464;19.014;2023-04-06T09:26:22;100167.34;;;7.83;38.14
58761;BME280;44529;47.464;19.014;2023-04-06T09:29:25;100166.13;;;7.75;36.47
58761;BME280;44529;47.464;19.014;2023-04-06T09:32:29;100162.84;;;7.78;36.60
58761;BME280;44529;47.464;19.014;2023-04-06T09:35:31;100171.03;;;7.73;36.08
58761;BME280;44529;47.464;19.014;2023-04-06T09:38:37;100161.94;;;7.69;37.21
58761;BME280;44529;47.464;19.014;2023-04-06T09:41:40;100156.16;;;7.76;37.58
58761;BME280;44529;47.464;19.014;2023-04-06T09:44:42;100156.38;;;7.79;37.55
58761;BME280;44529;47.464;19.014;2023-04-06T09:47:45;100153.50;;;7.90;37.06
58761;BME280;44529;47.464;19.014;2023-04-06T09:50:49;100155.28;;;7.80;36.96
58761;BME280;44529;47.464;19.014;2023-04-06T09:53:54;100153.19;;;7.91;36.77
58761;BME280;44529;47.464;19.014;2023-04-06T09:57:25;100153.94;;;8.10;35.85
58761;BME280;44529;47.464;19.014;2023-04-06T10:00:28;100151.12;;;8.02;36.47
58761;BME280;44529;47.464;19.014;2023-04-06T10:03:40;100141.38;;;8.06;36.28
58761;BME280;44529;47.464;19.014;2023-04-06T10:06:47;100149.66;;;8.09;35.65
58761;BME280;44529;47.464;19.014;2023-04-06T10:09:55;100136.75;;;8.39;35.39
58761;BME280;44529;47.464;19.014;2023-04-06T10:12:57;100149.59;;;8.56;35.47
58761;BME280;44529;47.464;19.014;2023-04-06T10:16:01;100140.16;;;8.58;35.76
58761;BME280;44529;47.464;19.014;2023-04-06T10:19:23;100136.63;;;8.72;35.81
58761;BME280;44529;47.464;19.014;2023-04-06T10:22:57;100129.34;;;8.72;35.37
58761;BME280;44529;47.464;19.014;2023-04-06T10:26:00;100129.84;;;8.74;35.44
58761;BME280;44529;47.464;19.014;2023-04-06T10:29:03;100116.16;;;8.84;35.67
58761;BME280;44529;47.464;19.014;2023-04-06T10:32:06;100117.81;;;8.94;34.30
58761;BME280;44529;47.464;19.014;2023-04-06T10:35:09;100123.09;;;8.99;34.31
58761;BME280;44529;47.464;19.014;2023-04-06T10:38:12;100119.50;;;9.04;34.09
58761;BME280;44529;47.464;19.014;2023-04-06T10:41:17;100115.91;;;8.94;33.57
58761;BME280;44529;47.464;19.014;2023-04-06T10:44:23;100117.12;;;9.02;33.81
58761;BME280;44529;47.464;19.014;2023-04-06T10:47:26;100107.41;;;9.01;34.27
58761;BME280;44529;47.464;19.014;2023-04-06T10:50:29;100099.78;;;9.17;34.49
58761;BME280;44529;47.464;19.014;2023-04-06T10:53:33;100099.03;;;9.25;34.33
58761;BME280;44529;47.464;19.014;2023-04-06T10:56:36;100092.69;;;9.21;33.97
58761;BME280;44529;47.464;19.014;2023-04-06T10:59:43;100099.41;;;9.32;34.04
58761;BME280;44529;47.464;19.014;2023-04-06T11:02:46;100092.69;;;9.21;34.47
58761;BME280;44529;47.464;19.014;2023-04-06T11:05:50;100085.06;;;9.23;34.56
58761;BME280;44529;47.464;19.014;2023-04-06T11:08:54;100098.44;;;9.28;34.67
58761;BME280;44529;47.464;19.014;2023-04-06T11:11:57;100094.25;;;9.22;33.95
58761;BME280;44529;47.464;19.014;2023-04-06T11:15:02;100081.88;;;9.21;33.46
58761;BME280;44529;47.464;19.014;2023-04-06T11:18:08;100089.66;;;9.22;33.21
58761;BME280;44529;47.464;19.014;2023-04-06T11:21:10;100087.66;;;9.28;33.47
58761;BME280;44529;47.464;19.014;2023-04-06T11:24:16;100091.41;;;9.27;34.32
58761;BME280;44529;47.464;19.014;2023-04-06T11:27:19;100083.53;;;9.31;34.53
58761;BME280;44529;47.464;19.014;2023-04-06T11:30:23;100077.69;;;9.37;34.49
58761;BME280;44529;47.464;19.014;2023-04-06T11:33:25;100072.78;;;9.39;33.37
58761;BME280;44529;47.464;19.014;2023-04-06T11:36:28;100068.75;;;9.28;32.10
58761;BME280;44529;47.464;19.014;2023-04-06T11:39:40;100072.84;;;9.26;32.01
58761;BME280;44529;47.464;19.014;2023-04-06T11:42:52;100066.72;;;9.34;33.13
58761;BME280;44529;47.464;19.014;2023-04-06T11:45:59;100062.38;;;9.24;32.72
58761;BME280;44529;47.464;19.014;2023-04-06T11:49:02;100075.13;;;9.32;32.82
58761;BME280;44529;47.464;19.014;2023-04-06T11:55:18;100066.91;;;9.37;32.46
58761;BME280;44529;47.464;19.014;2023-04-06T11:58:21;100062.22;;;9.52;33.37
58761;BME280;44529;47.464;19.014;2023-04-06T12:01:24;100052.28;;;9.61;33.63
58761;BME280;44529;47.464;19.014;2023-04-06T12:04:27;100061.75;;;9.49;34.48
58761;BME280;44529;47.464;19.014;2023-04-06T12:07:29;100056.34;;;9.49;33.36
58761;BME280;44529;47.464;19.014;2023-04-06T12:10:32;100054.75;;;9.48;34.61
58761;BME280;44529;47.464;19.014;2023-04-06T12:13:34;100062.19;;;9.43;34.02
58761;BME280;44529;47.464;19.014;2023-04-06T12:16:37;100063.59;;;9.40;33.24
58761;BME280;44529;47.464;19.014;2023-04-06T12:19:39;100067.84;;;9.10;33.35
58761;BME280;44529;47.464;19.014;2023-04-06T12:22:42;100059.16;;;9.00;33.71
58761;BME280;44529;47.464;19.014;2023-04-06T12:25:45;100062.19;;;8.98;33.39
58761;BME280;44529;47.464;19.014;2023-04-06T12:28:48;100056.84;;;9.07;33.79
58761;BME280;44529;47.464;19.014;2023-04-06T12:31:50;100049.44;;;8.90;36.11
58761;BME280;44529;47.464;19.014;2023-04-06T12:34:53;100051.81;;;8.91;34.73
58761;BME280;44529;47.464;19.014;2023-04-06T12:37:55;100057.53;;;8.90;34.27
58761;BME280;44529;47.464;19.014;2023-04-06T12:40:58;100055.62;;;8.90;34.74
58761;BME280;44529;47.464;19.014;2023-04-06T12:44:00;100051.38;;;8.98;35.50
58761;BME280;44529;47.464;19.014;2023-04-06T12:47:03;100045.16;;;9.11;35.14
58761;BME280;44529;47.464;19.014;2023-04-06T12:50:05;100073.12;;;9.15;34.33
58761;BME280;44529;47.464;19.014;2023-04-06T12:53:08;100059.16;;;9.00;34.35
58761;BME280;44529;47.464;19.014;2023-04-06T12:56:18;100052.19;;;8.99;35.93
58761;BME280;44529;47.464;19.014;2023-04-06T12:59:20;100055.34;;;8.78;36.41
58761;BME280;44529;47.464;19.014;2023-04-06T13:02:23;100055.94;;;8.75;35.18
58761;BME280;44529;47.464;19.014;2023-04-06T13:05:26;100049.28;;;8.73;34.47
58761;BME280;44529;47.464;19.014;2023-04-06T13:08:31;100050.00;;;8.64;34.45
58761;BME280;44529;47.464;19.014;2023-04-06T13:11:33;100053.97;;;8.67;34.90
58761;BME280;44529;47.464;19.014;2023-04-06T13:14:36;100034.31;;;8.66;34.20
58761;BME280;44529;47.464;19.014;2023-04-06T13:17:39;100036.97;;;8.80;34.19
58761;BME280;44529;47.464;19.014;2023-04-06T13:20:41;100035.53;;;8.97;34.92
58761;BME280;44529;47.464;19.014;2023-04-06T13:23:44;100039.50;;;8.99;35.24
58761;BME280;44529;47.464;19.014;2023-04-06T13:26:46;100040.81;;;9.02;34.52
58761;BME280;44529;47.464;19.014;2023-04-06T13:29:49;100033.19;;;9.04;34.33
58761;BME280;44529;47.464;19.014;2023-04-06T13:32:51;100032.81;;;8.97;34.68
58761;BME280;44529;47.464;19.014;2023-04-06T13:35:54;100027.91;;;8.99;34.59
58761;BME280;44529;47.464;19.014;2023-04-06T13:38:56;100043.91;;;8.95;36.85
58761;BME280;44529;47.464;19.014;2023-04-06T13:41:59;100034.72;;;8.96;36.25
58761;BME280;44529;47.464;19.014;2023-04-06T13:45:05;100037.84;;;8.89;37.62
58761;BME280;44529;47.464;19.014;2023-04-06T13:48:08;100030.72;;;8.71;37.53
58761;BME280;44529;47.464;19.014;2023-04-06T13:51:11;100038.69;;;8.76;37.63
58761;BME280;44529;47.464;19.014;2023-04-06T13:54:14;100043.16;;;8.45;37.93
58761;BME280;44529;47.464;19.014;2023-04-06T13:57:16;100041.25;;;8.45;37.76
58761;BME280;44529;47.464;19.014;2023-04-06T14:00:19;100041.94;;;8.51;39.03
58761;BME280;44529;47.464;19.014;2023-04-06T14:03:22;100030.56;;;8.40;39.36
58761;BME280;44529;47.464;19.014;2023-04-06T14:06:24;100020.59;;;8.27;39.28
58761;BME280;44529;47.464;19.014;2023-04-06T14:09:33;100025.56;;;8.33;39.17
58761;BME280;44529;47.464;19.014;2023-04-06T14:12:35;100017.50;;;8.33;39.14
58761;BME280;44529;47.464;19.014;2023-04-06T14:15:38;100010.81;;;8.31;38.91
58761;BME280;44529;47.464;19.014;2023-04-06T14:18:40;100017.00;;;8.45;38.37
58761;BME280;44529;47.464;19.014;2023-04-06T14:21:44;100016.37;;;8.34;39.05
58761;BME280;44529;47.464;19.014;2023-04-06T14:24:46;100015.81;;;8.37;39.49
58761;BME280;44529;47.464;19.014;2023-04-06T14:27:49;100012.50;;;8.40;37.61
58761;BME280;44529;47.464;19.014;2023-04-06T14:30:51;100012.00;;;8.52;37.83
58761;BME280;44529;47.464;19.014;2023-04-06T14:33:53;100019.47;;;8.55;37.63
58761;BME280;44529;47.464;19.014;2023-04-06T14:36:56;100027.84;;;8.54;38.00
58761;BME280;44529;47.464;19.014;2023-04-06T14:39:58;100034.16;;;8.49;38.46
58761;BME280;44529;47.464;19.014;2023-04-06T14:43:01;100035.16;;;8.26;39.54
58761;BME280;44529;47.464;19.014;2023-04-06T14:46:04;100033.56;;;8.25;40.25
58761;BME280;44529;47.464;19.014;2023-04-06T14:49:06;100040.66;;;8.07;40.58
58761;BME280;44529;47.464;19.014;2023-04-06T14:52:09;100040.56;;;8.12;40.11
58761;BME280;44529;47.464;19.014;2023-04-06T14:55:11;100035.66;;;8.00;40.74
58761;BME280;44529;47.464;19.014;2023-04-06T14:58:13;100043.22;;;7.84;41.77
58761;BME280;44529;47.464;19.014;2023-04-06T15:01:18;100041.94;;;7.96;41.65
58761;BME280;44529;47.464;19.014;2023-04-06T15:04:20;100057.09;;;7.92;42.57
58761;BME280;44529;47.464;19.014;2023-04-06T15:07:23;100061.47;;;7.74;43.59
58761;BME280;44529;47.464;19.014;2023-04-06T15:10:25;100052.28;;;7.61;44.22
58761;BME280;44529;47.464;19.014;2023-04-06T15:13:27;100062.19;;;7.47;46.27
58761;BME280;44529;47.464;19.014;2023-04-06T15:16:30;100062.19;;;7.47;47.32
58761;BME280;44529;47.464;19.014;2023-04-06T15:19:34;100056.16;;;7.22;48.57
58761;BME280;44529;47.464;19.014;2023-04-06T15:22:37;100055.38;;;7.22;50.16
58761;BME280;44529;47.464;19.014;2023-04-06T15:25:39;100056.31;;;7.12;52.32
58761;BME280;44529;47.464;19.014;2023-04-06T15:28:43;100053.28;;;7.00;53.23
58761;BME280;44529;47.464;19.014;2023-04-06T15:31:45;100054.28;;;7.04;51.81
58761;BME280;44529;47.464;19.014;2023-04-06T15:34:48;100055.03;;;6.91;52.39
58761;BME280;44529;47.464;19.014;2023-04-06T15:37:50;100053.13;;;6.91;52.43
58761;BME280;44529;47.464;19.014;2023-04-06T15:40:53;100051.38;;;7.00;52.16
58761;BME280;44529;47.464;19.014;2023-04-06T15:43:55;100050.16;;;6.93;53.78
58761;BME280;44529;47.464;19.014;2023-04-06T15:46:58;100055.66;;;6.83;53.57
58761;BME280;44529;47.464;19.014;2023-04-06T15:50:00;100054.66;;;6.78;54.74
58761;BME280;44529;47.464;19.014;2023-04-06T15:53:03;100056.97;;;6.66;54.81
58761;BME280;44529;47.464;19.014;2023-04-06T15:56:06;100048.84;;;6.71;55.22
58761;BME280;44529;47.464;19.014;2023-04-06T15:59:10;100054.66;;;6.78;54.63